MSC Barbara — HODU — position and weather

sailwx.info

Track history (hours):
 
Tides and Currents Weather Stations Pressure Air Temp Water Temp Dewpoint Dewpoint Depression Visibility Wind Speed Wind Dir Waves Ship Positions

MSC Barbara

Last reported at 2015-Jul-03 02:24 UTC. Time now 2015-Jul-03 20:19 UTC.
Position N 39°12' W 074°01'.

; draft 11.4 m.

Type: Ship. MMSI: 353775000.

Date/timePositionNaut miles runAvg speedWind from/ knotsBaromVisibWave heightAir tempDewpointWater temp
2015-Jul-03 02:24N 39°12' W 074°01'1513.1
2015-Jul-03 01:16N 39°27' W 073°58'1013.1
2015-Jul-03 00:29N 39°37' W 073°55'1212.9
2015-Jul-02 23:33N 39°49' W 073°53'1312.8
2015-Jul-02 22:33N 40°02' W 073°51'1312.8
2015-Jul-02 21:33N 40°15' W 073°50'1212.3
2015-Jul-02 20:33N 40°27' W 073°49'1414.1
2015-Jul-02 19:34N 40°36' W 074°03'6 5.8
2015-Jul-02 18:33N 40°40' W 074°08'1 1.2
2015-Jul-02 17:34N 40°41' W 074°09'0 0.0
2015-Jul-02 16:34N 40°41' W 074°09'0 0.0
2015-Jul-02 15:33N 40°41' W 074°09'0 0.0
2015-Jul-02 14:33N 40°41' W 074°09'0 0.0
2015-Jul-02 13:34N 40°41' W 074°09'0 0.0
2015-Jul-02 12:34N 40°41' W 074°09'0 0.0
2015-Jul-02 11:33N 40°41' W 074°09'0 0.0
2015-Jul-02 10:33N 40°41' W 074°09'0 0.0
2015-Jul-02 09:33N 40°41' W 074°09'0 0.0
2015-Jul-02 08:34N 40°41' W 074°09'0 0.0
2015-Jul-02 07:33N 40°41' W 074°09'0 0.0
2015-Jul-02 06:33N 40°41' W 074°09'0 0.0
2015-Jul-02 05:34N 40°41' W 074°09'0 0.0
2015-Jul-02 04:34N 40°41' W 074°09'0 0.0
2015-Jul-02 03:33N 40°41' W 074°09'0 0.0
2015-Jul-02 02:33N 40°41' W 074°09'0 0.0
2015-Jul-02 01:34N 40°41' W 074°09'0 0.0
2015-Jul-02 00:34N 40°41' W 074°09'0 0.0
2015-Jul-01 23:33N 40°41' W 074°09'0 0.0
2015-Jul-01 22:34N 40°41' W 074°09'0 0.0
2015-Jul-01 21:33N 40°41' W 074°09'0 0.0
2015-Jul-01 20:33N 40°41' W 074°09'0 0.0
2015-Jul-01 19:34N 40°41' W 074°09'0 0.0
2015-Jul-01 18:34N 40°41' W 074°09'0 0.0
2015-Jul-01 17:33N 40°41' W 074°09'0 0.0
2015-Jul-01 16:34N 40°41' W 074°09'0 0.0
2015-Jul-01 15:33N 40°41' W 074°09'0 0.0
2015-Jul-01 14:33N 40°41' W 074°09'0 0.0
2015-Jul-01 13:33N 40°41' W 074°09'0 0.0
2015-Jul-01 12:33N 40°41' W 074°09'0 0.0
2015-Jul-01 11:33N 40°41' W 074°09'0 0.0
2015-Jul-01 10:33N 40°41' W 074°09'1 1.4
2015-Jul-01 09:33N 40°40' W 074°08'4 4.3
2015-Jul-01 08:33N 40°38' W 074°03'1010.0
2015-Jul-01 07:34N 40°30' W 073°56'10 8.6
2015-Jul-01 06:24N 40°28' W 073°43'10 8.7
2015-Jul-01 05:17N 40°28' W 073°31'710.2
2015-Jul-01 04:33N 40°29' W 073°21'1010.2
2015-Jul-01 03:33N 40°30' W 073°07'1210.5
2015-Jul-01 02:26N 40°30' W 072°52'910.4
2015-Jul-01 01:33N 40°30' W 072°40'1010.3
2015-Jul-01 00:33N 40°31' W 072°26'1010.1
2015-Jun-30 23:33N 40°31' W 072°13'10 9.9
2015-Jun-30 22:33N 40°31' W 072°00'1110.6
2015-Jun-30 21:33N 40°32' W 071°46'1211.9
2015-Jun-30 20:33N 40°32' W 071°31'1212.1
2015-Jun-30 19:33N 40°32' W 071°15'1212.3
2015-Jun-30 18:33N 40°33' W 070°58'1212.3
2015-Jun-30 17:33N 40°33' W 070°42'1212.1
2015-Jun-30 16:33N 40°33' W 070°26'1411.9
2015-Jun-30 15:21N 40°35' W 070°07'911.6
2015-Jun-30 14:33N 40°35' W 069°55'1211.8
2015-Jun-30 13:33N 40°35' W 069°40'1414.2
2015-Jun-30 12:33N 40°35' W 069°21'1717.3
2015-Jun-30 11:33N 40°32' W 068°59'1817.9
2015-Jun-30 10:33N 40°28' W 068°36'  
2015-Jun-24 06:33N 49°57' W 003°18'2020.2
2015-Jun-24 05:33N 49°60' W 002°46'2020.3
2015-Jun-24 04:34N 50°05' W 002°16'2019.6
2015-Jun-24 03:34N 50°09' W 001°46'2618.1
2015-Jun-24 02:08N 50°17' W 001°08'1117.2
2015-Jun-24 01:30N 50°20' W 000°51'1617.1
2015-Jun-24 00:33N 50°24' W 000°27'1817.9
2015-Jun-23 23:34N 50°30' E 000°00'1919.0
2015-Jun-23 22:34N 50°34' E 000°29'2019.8
2015-Jun-23 21:33N 50°45' E 000°55'2019.7
2015-Jun-23 20:34N 50°56' E 001°21'1919.0
2015-Jun-23 19:34N 51°10' E 001°41'818.3
2015-Jun-23 19:06N 51°17' E 001°48'  
Track history (hours):
 
Tides and Currents Weather Stations Pressure Air Temp Water Temp Dewpoint Dewpoint Depression Visibility Wind Speed Wind Dir Waves Ship Positions

MSC Barbara

Last reported at 2015-Jul-03 02:24 UTC. Time now 2015-Jul-03 20:19 UTC.
Position N 39°12' W 074°01'.

; draft 11.4 m.

Type: Ship. MMSI: 353775000.

Date/timePositionNaut miles runAvg speedWind from/ knotsBaromVisibWave heightAir tempDewpointWater temp
2015-Jul-03 02:24N 39°12' W 074°01'1513.1
2015-Jul-03 01:16N 39°27' W 073°58'1013.1
2015-Jul-03 00:29N 39°37' W 073°55'1212.9
2015-Jul-02 23:33N 39°49' W 073°53'1312.8
2015-Jul-02 22:33N 40°02' W 073°51'1312.8
2015-Jul-02 21:33N 40°15' W 073°50'1212.3
2015-Jul-02 20:33N 40°27' W 073°49'1414.1
2015-Jul-02 19:34N 40°36' W 074°03'6 5.8
2015-Jul-02 18:33N 40°40' W 074°08'1 1.2
2015-Jul-02 17:34N 40°41' W 074°09'0 0.0
2015-Jul-02 16:34N 40°41' W 074°09'0 0.0
2015-Jul-02 15:33N 40°41' W 074°09'0 0.0
2015-Jul-02 14:33N 40°41' W 074°09'0 0.0
2015-Jul-02 13:34N 40°41' W 074°09'0 0.0
2015-Jul-02 12:34N 40°41' W 074°09'0 0.0
2015-Jul-02 11:33N 40°41' W 074°09'0 0.0
2015-Jul-02 10:33N 40°41' W 074°09'0 0.0
2015-Jul-02 09:33N 40°41' W 074°09'0 0.0
2015-Jul-02 08:34N 40°41' W 074°09'0 0.0
2015-Jul-02 07:33N 40°41' W 074°09'0 0.0
2015-Jul-02 06:33N 40°41' W 074°09'0 0.0
2015-Jul-02 05:34N 40°41' W 074°09'0 0.0
2015-Jul-02 04:34N 40°41' W 074°09'0 0.0
2015-Jul-02 03:33N 40°41' W 074°09'0 0.0
2015-Jul-02 02:33N 40°41' W 074°09'0 0.0
2015-Jul-02 01:34N 40°41' W 074°09'0 0.0
2015-Jul-02 00:34N 40°41' W 074°09'0 0.0
2015-Jul-01 23:33N 40°41' W 074°09'0 0.0
2015-Jul-01 22:34N 40°41' W 074°09'0 0.0
2015-Jul-01 21:33N 40°41' W 074°09'0 0.0
2015-Jul-01 20:33N 40°41' W 074°09'0 0.0
2015-Jul-01 19:34N 40°41' W 074°09'0 0.0
2015-Jul-01 18:34N 40°41' W 074°09'0 0.0
2015-Jul-01 17:33N 40°41' W 074°09'0 0.0
2015-Jul-01 16:34N 40°41' W 074°09'0 0.0
2015-Jul-01 15:33N 40°41' W 074°09'0 0.0
2015-Jul-01 14:33N 40°41' W 074°09'0 0.0
2015-Jul-01 13:33N 40°41' W 074°09'0 0.0
2015-Jul-01 12:33N 40°41' W 074°09'0 0.0
2015-Jul-01 11:33N 40°41' W 074°09'0 0.0
2015-Jul-01 10:33N 40°41' W 074°09'1 1.4
2015-Jul-01 09:33N 40°40' W 074°08'4 4.3
2015-Jul-01 08:33N 40°38' W 074°03'1010.0
2015-Jul-01 07:34N 40°30' W 073°56'10 8.6
2015-Jul-01 06:24N 40°28' W 073°43'10 8.7
2015-Jul-01 05:17N 40°28' W 073°31'710.2
2015-Jul-01 04:33N 40°29' W 073°21'1010.2
2015-Jul-01 03:33N 40°30' W 073°07'1210.5
2015-Jul-01 02:26N 40°30' W 072°52'910.4
2015-Jul-01 01:33N 40°30' W 072°40'1010.3
2015-Jul-01 00:33N 40°31' W 072°26'1010.1
2015-Jun-30 23:33N 40°31' W 072°13'10 9.9
2015-Jun-30 22:33N 40°31' W 072°00'1110.6
2015-Jun-30 21:33N 40°32' W 071°46'1211.9
2015-Jun-30 20:33N 40°32' W 071°31'1212.1
2015-Jun-30 19:33N 40°32' W 071°15'1212.3
2015-Jun-30 18:33N 40°33' W 070°58'1212.3
2015-Jun-30 17:33N 40°33' W 070°42'1212.1
2015-Jun-30 16:33N 40°33' W 070°26'1411.9
2015-Jun-30 15:21N 40°35' W 070°07'911.6
2015-Jun-30 14:33N 40°35' W 069°55'1211.8
2015-Jun-30 13:33N 40°35' W 069°40'1414.2
2015-Jun-30 12:33N 40°35' W 069°21'1717.3
2015-Jun-30 11:33N 40°32' W 068°59'1817.9
2015-Jun-30 10:33N 40°28' W 068°36'  
2015-Jun-24 06:33N 49°57' W 003°18'2020.2
2015-Jun-24 05:33N 49°60' W 002°46'2020.3
2015-Jun-24 04:34N 50°05' W 002°16'2019.6
2015-Jun-24 03:34N 50°09' W 001°46'2618.1
2015-Jun-24 02:08N 50°17' W 001°08'1117.2
2015-Jun-24 01:30N 50°20' W 000°51'1617.1
2015-Jun-24 00:33N 50°24' W 000°27'1817.9
2015-Jun-23 23:34N 50°30' E 000°00'1919.0
2015-Jun-23 22:34N 50°34' E 000°29'2019.8
2015-Jun-23 21:33N 50°45' E 000°55'2019.7
2015-Jun-23 20:34N 50°56' E 001°21'1919.0
2015-Jun-23 19:34N 51°10' E 001°41'818.3
2015-Jun-23 19:06N 51°17' E 001°48'  

Dump ship's entire track history